Time;durP1;ratioP1;P1;durP2;ratioP2;P2;SDS_P1;SDS_P2;PMS_P1;PMS_P2;Temp;Humidity;BMP_temperature;BMP_pressure;BME280_temperature;BME280_humidity;BME280_pressure;Samples;Min_cycle;Max_cycle;Signal;HPM_P1;HPM_P2
2023/01/09 00:01:39;;;;;;;16.73;8.20;;;;;;;0.03;nan;-23815.97;5013245;28;20197;-72
2023/01/09 00:04:04;;;;;;;16.87;7.57;;;;;;;-0.43;nan;-23802.78;5012802;28;20687;-73
2023/01/09 00:06:30;;;;;;;18.50;8.40;;;;;;;-0.11;nan;-23811.97;5013254;28;20219;-74
2023/01/09 00:08:56;;;;;;;11.83;7.30;;;;;;;-0.69;nan;-23795.47;5013295;28;20179;-74
2023/01/09 00:11:21;;;;;;;28.37;9.27;;;;;;;-0.16;nan;-23810.66;5011923;28;20172;-72
2023/01/09 00:13:47;;;;;;;18.93;10.20;;;;;;;-0.51;nan;-23800.63;5012650;28;20186;-74
2023/01/09 00:16:13;;;;;;;23.27;8.73;;;;;;;0.03;nan;-23815.97;5012467;28;20724;-72
2023/01/09 00:18:38;;;;;;;14.03;8.20;;;;;;;0.02;nan;-23815.53;5012062;28;20184;-77
2023/01/09 00:21:07;;;;;;;20.90;8.37;;;;;;;-0.16;nan;-23810.66;5011273;28;20246;-75
2023/01/09 00:23:33;;;;;;;12.20;7.40;;;;;;;-0.26;nan;-23807.66;5011864;28;20572;-75
2023/01/09 00:26:06;;;;;;;18.73;8.03;;;;;;;-0.40;nan;-23803.78;5012351;28;20690;-72
2023/01/09 00:28:33;;;;;;;17.13;8.13;;;;;;;-0.55;nan;-23799.63;5012025;28;20187;-71
2023/01/09 00:31:00;;;;;;;13.63;7.93;;;;;;;-0.57;nan;-23798.91;5016768;28;20271;-72
2023/01/09 00:33:34;;;;;;;14.73;8.20;;;;;;;-0.95;nan;-23788.16;5012108;28;20265;-72
2023/01/09 00:36:00;;;;;;;17.87;8.77;;;;;;;-0.37;nan;-23804.66;5012962;28;20659;-73
2023/01/09 00:38:25;;;;;;;10.50;5.80;;;;;;;-0.49;nan;-23801.34;5012687;28;20184;-73
2023/01/09 00:40:53;;;;;;;22.83;8.37;;;;;;;-0.36;nan;-23804.94;5012744;28;20234;-72
2023/01/09 00:43:19;;;;;;;11.23;7.03;;;;;;;-0.53;nan;-23800.06;5012424;28;20262;-72
2023/01/09 00:45:45;;;;;;;11.83;6.63;;;;;;;-0.64;nan;-23796.91;5012309;28;20189;-74
2023/01/09 00:48:14;;;;;;;8.47;6.07;;;;;;;-0.61;nan;-23797.78;5012154;28;20176;-72
2023/01/09 00:50:40;;;;;;;21.27;7.20;;;;;;;-0.95;nan;-23788.16;5012307;28;20226;-73
2023/01/09 00:53:11;;;;;;;14.20;7.57;;;;;;;-0.80;nan;-23792.47;5012355;28;20181;-75
2023/01/09 00:55:38;;;;;;;14.27;5.97;;;;;;;-1.03;nan;-23786.03;5012040;28;20638;-74
2023/01/09 00:58:03;;;;;;;14.13;6.73;;;;;;;-0.69;nan;-23795.47;5012171;28;20180;-73
2023/01/09 01:00:29;;;;;;;14.63;7.03;;;;;;;-0.93;nan;-23788.88;5012083;28;20283;-72
2023/01/09 01:02:54;;;;;;;11.57;6.57;;;;;;;-0.63;nan;-23797.19;5012282;28;20199;-72
2023/01/09 01:08:16;;;;;;;11.13;6.70;;;;;;;-0.64;nan;-23796.91;5003159;28;20194;-73
2023/01/09 01:10:43;;;;;;;11.63;6.97;;;;;;;-0.68;nan;-23795.75;5010779;28;20195;-73
2023/01/09 01:13:09;;;;;;;11.77;6.33;;;;;;;-0.59;nan;-23798.34;5011944;28;20198;-73
2023/01/09 01:15:38;;;;;;;16.83;7.63;;;;;;;-0.52;nan;-23800.50;5012096;28;20163;-73
2023/01/09 01:18:03;;;;;;;9.97;6.07;;;;;;;-0.93;nan;-23788.88;5016468;28;20172;-71
2023/01/09 01:20:28;;;;;;;15.40;6.90;;;;;;;-0.45;nan;-23802.50;5018349;28;20209;-74
2023/01/09 01:22:54;;;;;;;13.07;6.50;;;;;;;-0.94;nan;-23788.59;5011847;28;20552;-73
2023/01/09 01:25:19;;;;;;;13.77;7.17;;;;;;;-0.48;nan;-23801.50;5012040;28;20198;-70
2023/01/09 01:27:45;;;;;;;14.17;8.30;;;;;;;-0.97;nan;-23787.59;5011743;28;20165;-75
2023/01/09 01:30:13;;;;;;;11.10;7.27;;;;;;;-0.63;nan;-23797.19;5011961;28;20176;-71
2023/01/09 01:32:38;;;;;;;13.30;6.73;;;;;;;-0.63;nan;-23797.19;5011923;28;20179;-72
2023/01/09 01:35:05;;;;;;;16.03;8.00;;;;;;;-0.66;nan;-23796.34;5010838;28;20183;-73
2023/01/09 01:37:32;;;;;;;11.27;6.27;;;;;;;-0.63;nan;-23797.19;5015761;28;20233;-71
2023/01/09 01:39:58;;;;;;;12.13;6.53;;;;;;;-1.13;nan;-23783.16;5015242;28;20663;-73
2023/01/09 01:42:23;;;;;;;9.07;6.13;;;;;;;-0.90;nan;-23789.75;5020536;28;20227;-71
2023/01/09 01:45:01;;;;;;;11.50;5.50;;;;;;;-0.62;nan;-23797.63;5015907;28;20206;-72
2023/01/09 01:47:41;;;;;;;14.50;5.80;;;;;;;-0.76;nan;-23793.63;4996117;28;20168;-73
2023/01/09 01:50:22;;;;;;;6.40;4.70;;;;;;;-0.95;nan;-23788.31;5003845;28;20183;-73
2023/01/09 01:52:54;;;;;;;10.30;6.07;;;;;;;-1.12;nan;-23783.28;5014043;28;20176;-74
2023/01/09 01:55:21;;;;;;;17.13;6.93;;;;;;;-1.02;nan;-23786.31;5014086;28;20290;-74
2023/01/09 01:57:49;;;;;;;26.57;7.33;;;;;;;-1.17;nan;-23782.00;5015897;28;20178;-72
2023/01/09 02:00:17;;;;;;;11.17;5.53;;;;;;;-0.82;nan;-23791.75;5015233;28;20164;-72
2023/01/09 02:02:44;;;;;;;16.77;7.77;;;;;;;-0.98;nan;-23787.44;5015048;28;20179;-73
2023/01/09 02:05:10;;;;;;;14.73;5.80;;;;;;;-0.92;nan;-23789.16;5015258;28;20258;-72
2023/01/09 02:07:36;;;;;;;13.93;5.77;;;;;;;-1.24;nan;-23780.00;5019380;28;20647;-72
2023/01/09 02:10:01;;;;;;;10.93;7.20;;;;;;;-1.21;nan;-23780.72;5015114;28;20592;-72
2023/01/09 02:12:27;;;;;;;9.80;5.87;;;;;;;-1.23;nan;-23780.28;5014805;28;20646;-72
2023/01/09 02:15:12;;;;;;;14.13;8.03;;;;;;;-0.90;nan;-23789.59;5014968;28;20195;-72
2023/01/09 02:18:10;;;;;;;11.77;5.97;;;;;;;-0.92;nan;-23789.03;5019720;28;20200;-72
2023/01/09 02:20:44;;;;;;;9.97;5.83;;;;;;;-1.12;nan;-23783.28;5010571;28;20202;-74
2023/01/09 02:23:18;;;;;;;11.43;6.87;;;;;;;-0.88;nan;-23790.31;5015180;28;20194;-71
2023/01/09 02:25:47;;;;;;;11.17;5.67;;;;;;;-0.86;nan;-23790.59;5014818;28;20578;-72
2023/01/09 02:28:21;;;;;;;13.70;5.23;;;;;;;-0.84;nan;-23791.19;5014994;28;20168;-73
2023/01/09 02:30:56;;;;;;;9.00;5.40;;;;;;;-1.24;nan;-23780.00;5014804;28;20269;-71
2023/01/09 02:33:46;;;;;;;7.83;5.97;;;;;;;-0.95;nan;-23788.31;5014573;28;20167;-73
2023/01/09 02:36:30;;;;;;;15.40;7.93;;;;;;;-1.45;nan;-23774.13;5014795;28;20343;-73
2023/01/09 02:39:11;;;;;;;10.87;5.93;;;;;;;-1.03;nan;-23785.88;5014710;28;20170;-73
2023/01/09 02:41:51;;;;;;;10.83;6.33;;;;;;;-0.69;nan;-23795.47;5014732;28;20560;-73
2023/01/09 02:44:19;;;;;;;8.17;6.10;;;;;;;-0.68;nan;-23795.75;5014654;28;20182;-73
2023/01/09 02:46:45;;;;;;;12.37;6.07;;;;;;;-1.28;nan;-23778.84;5014057;28;20267;-73
2023/01/09 02:49:11;;;;;;;9.67;5.23;;;;;;;-1.14;nan;-23782.72;5014430;28;20543;-70
2023/01/09 02:52:06;;;;;;;14.80;6.67;;;;;;;-1.16;nan;-23782.28;5014376;28;20195;-72
2023/01/09 02:54:50;;;;;;;14.93;6.70;;;;;;;-0.66;nan;-23796.47;5019233;28;20195;-74
2023/01/09 02:57:24;;;;;;;10.10;6.07;;;;;;;-1.13;nan;-23783.00;5014665;28;20182;-73
2023/01/09 03:00:20;;;;;;;14.83;6.00;;;;;;;-0.91;nan;-23789.47;5014878;28;20170;-73
2023/01/09 03:02:57;;;;;;;12.87;6.87;;;;;;;-1.43;nan;-23774.53;5013585;28;20192;-73
2023/01/09 03:05:42;;;;;;;10.73;6.03;;;;;;;-1.08;nan;-23784.44;5014575;28;20256;-73
2023/01/09 03:08:14;;;;;;;15.57;6.97;;;;;;;-1.07;nan;-23784.88;5014228;28;20178;-73
2023/01/09 03:10:53;;;;;;;9.03;5.20;;;;;;;-0.99;nan;-23787.03;5014604;28;20669;-72
2023/01/09 03:13:22;;;;;;;12.43;6.20;;;;;;;-1.38;nan;-23775.97;5013497;28;20622;-73
2023/01/09 03:15:51;;;;;;;9.10;5.83;;;;;;;-1.28;nan;-23778.84;5013903;28;20263;-73
2023/01/09 03:18:21;;;;;;;10.93;6.03;;;;;;;-1.30;nan;-23778.28;5013678;28;20162;-71
2023/01/09 03:20:47;;;;;;;11.93;5.10;;;;;;;-1.59;nan;-23769.94;5013894;28;20199;-71
2023/01/09 03:23:12;;;;;;;11.47;5.57;;;;;;;-1.23;nan;-23780.13;5013733;28;20176;-73
2023/01/09 03:25:38;;;;;;;10.13;6.00;;;;;;;-1.67;nan;-23767.81;5013527;28;20181;-71
2023/01/09 03:28:06;;;;;;;10.10;6.03;;;;;;;-1.22;nan;-23780.44;5012448;28;20202;-72
2023/01/09 03:30:34;;;;;;;13.20;6.47;;;;;;;-1.73;nan;-23766.06;5014830;28;20659;-72
2023/01/09 03:32:59;;;;;;;11.20;5.50;;;;;;;-1.83;nan;-23763.34;5013131;28;20268;-73
2023/01/09 03:35:26;;;;;;;14.20;4.47;;;;;;;-1.65;nan;-23768.38;5013033;28;20277;-71
2023/01/09 03:37:51;;;;;;;8.97;4.67;;;;;;;-1.31;nan;-23778.00;5013088;28;20186;-73
2023/01/09 03:40:18;;;;;;;5.70;3.40;;;;;;;-1.21;nan;-23780.84;5012595;28;20177;-72
2023/01/09 03:42:43;;;;;;;9.80;6.10;;;;;;;-1.27;nan;-23779.00;5013134;28;20169;-71
2023/01/09 03:45:09;;;;;;;11.10;5.80;;;;;;;-1.35;nan;-23776.84;5013428;28;20175;-72
2023/01/09 03:47:34;;;;;;;9.93;5.67;;;;;;;-1.49;nan;-23772.81;5011633;28;20253;-71
2023/01/09 03:50:00;;;;;;;10.23;6.10;;;;;;;-1.33;nan;-23777.56;5013147;28;20236;-71
2023/01/09 03:52:25;;;;;;;10.97;5.67;;;;;;;-1.37;nan;-23776.41;5013673;28;20174;-71
2023/01/09 03:54:50;;;;;;;7.03;5.20;;;;;;;-1.54;nan;-23771.38;5020410;28;20181;-72
2023/01/09 03:57:16;;;;;;;11.37;5.53;;;;;;;-1.40;nan;-23775.53;5015089;28;20175;-72
2023/01/09 03:59:41;;;;;;;5.83;5.07;;;;;;;-1.22;nan;-23780.56;5012134;28;20186;-73
2023/01/09 04:02:07;;;;;;;12.63;6.03;;;;;;;-0.92;nan;-23789.03;5013249;28;20651;-71
2023/01/09 04:04:33;;;;;;;9.80;5.90;;;;;;;-0.81;nan;-23792.19;5013093;28;20223;-73
2023/01/09 04:06:58;;;;;;;9.97;5.73;;;;;;;-0.79;nan;-23792.75;5012059;28;20185;-71
2023/01/09 04:09:24;;;;;;;16.57;6.43;;;;;;;-0.98;nan;-23787.44;5017642;28;20187;-71
2023/01/09 04:11:49;;;;;;;14.43;7.33;;;;;;;-0.60;nan;-23798.06;5013297;28;20188;-73
2023/01/09 04:14:15;;;;;;;11.70;6.27;;;;;;;-0.63;nan;-23797.19;5011644;28;20233;-72
2023/01/09 04:16:40;;;;;;;10.70;6.03;;;;;;;-0.93;nan;-23788.75;5012605;28;20177;-71
2023/01/09 04:19:06;;;;;;;11.40;7.90;;;;;;;-0.86;nan;-23790.59;5013338;28;20176;-74
2023/01/09 04:21:31;;;;;;;16.57;8.53;;;;;;;-0.96;nan;-23787.88;5014891;28;20195;-74
2023/01/09 04:23:56;;;;;;;12.53;7.40;;;;;;;-0.29;nan;-23806.94;5015648;28;20526;-73
2023/01/09 04:26:22;;;;;;;14.07;7.30;;;;;;;-0.56;nan;-23799.34;5016975;28;20213;-74
2023/01/09 04:28:47;;;;;;;14.73;7.77;;;;;;;-0.54;nan;-23799.78;5017281;28;20275;-71
2023/01/09 04:31:13;;;;;;;15.50;7.47;;;;;;;-0.43;nan;-23802.78;5015139;28;20652;-71
2023/01/09 04:33:38;;;;;;;10.50;5.90;;;;;;;-0.82;nan;-23791.75;5015931;28;20546;-74
2023/01/09 04:36:04;;;;;;;30.43;9.30;;;;;;;-0.69;nan;-23795.63;5016345;28;20185;-72
2023/01/09 04:38:30;;;;;;;12.93;7.13;;;;;;;-0.77;nan;-23793.19;5017870;28;20189;-71
2023/01/09 04:40:55;;;;;;;9.50;6.27;;;;;;;-0.35;nan;-23805.22;5015900;28;20238;-73
2023/01/09 04:43:20;;;;;;;10.67;6.10;;;;;;;-0.40;nan;-23803.66;5015872;28;20183;-73
2023/01/09 04:45:46;;;;;;;15.67;6.93;;;;;;;-0.85;nan;-23791.03;5015792;28;20924;-71
2023/01/09 04:48:11;;;;;;;11.77;4.73;;;;;;;-0.83;nan;-23791.59;5015809;28;20199;-71
2023/01/09 04:50:37;;;;;;;12.43;6.57;;;;;;;-0.35;nan;-23805.22;5014994;28;20179;-73
2023/01/09 04:53:02;;;;;;;14.90;6.77;;;;;;;-0.44;nan;-23802.66;5014687;28;20215;-73
2023/01/09 04:55:28;;;;;;;12.53;6.40;;;;;;;-0.41;nan;-23803.50;5014732;28;20183;-73
2023/01/09 04:57:54;;;;;;;14.57;6.17;;;;;;;-0.20;nan;-23809.53;5015676;28;20191;-74
2023/01/09 05:00:19;;;;;;;12.40;6.50;;;;;;;-0.08;nan;-23812.97;5016328;28;20186;-72
2023/01/09 05:02:45;;;;;;;8.87;6.47;;;;;;;-0.11;nan;-23812.09;5015454;28;20272;-73
2023/01/09 05:05:10;;;;;;;17.83;8.20;;;;;;;-0.29;nan;-23806.94;5014992;28;20757;-73
2023/01/09 05:07:36;;;;;;;13.40;6.40;;;;;;;0.01;nan;-23815.41;5015906;28;20197;-72
2023/01/09 05:10:03;;;;;;;10.83;5.13;;;;;;;-0.39;nan;-23804.06;5015858;28;20531;-73
2023/01/09 05:12:29;;;;;;;11.03;5.90;;;;;;;0.04;nan;-23816.25;5014808;28;20258;-73
2023/01/09 05:14:54;;;;;;;19.03;7.03;;;;;;;-0.32;nan;-23806.09;5014157;28;20184;-71
2023/01/09 05:17:19;;;;;;;6.97;5.07;;;;;;;0.17;nan;-23819.84;5010874;28;20610;-73
2023/01/09 05:19:45;;;;;;;7.97;5.57;;;;;;;-0.34;nan;-23805.50;5010619;28;20215;-74
2023/01/09 05:22:12;;;;;;;8.03;5.57;;;;;;;-0.28;nan;-23807.22;5020400;28;20648;-72
2023/01/09 05:24:37;;;;;;;11.60;6.53;;;;;;;0.08;nan;-23817.25;5011054;28;20202;-71
2023/01/09 05:27:02;;;;;;;17.70;5.77;;;;;;;-0.28;nan;-23807.09;5011429;28;20208;-72
2023/01/09 05:29:28;;;;;;;14.30;5.53;;;;;;;-0.10;nan;-23812.38;5011064;28;20242;-74
2023/01/09 05:31:53;;;;;;;7.83;5.73;;;;;;;-0.08;nan;-23812.97;5011521;28;20187;-71
2023/01/09 05:34:20;;;;;;;7.40;5.13;;;;;;;-0.27;nan;-23807.38;5009961;28;20241;-75
2023/01/09 05:36:45;;;;;;;13.53;5.83;;;;;;;-0.25;nan;-23807.94;5009978;28;20185;-73
2023/01/09 05:39:11;;;;;;;10.07;5.93;;;;;;;0.17;nan;-23819.97;5011245;28;20548;-74
2023/01/09 05:41:36;;;;;;;10.77;5.97;;;;;;;-0.35;nan;-23805.22;5011341;28;20250;-72
2023/01/09 05:44:03;;;;;;;11.10;5.87;;;;;;;0.06;nan;-23816.69;5011606;28;20176;-74
2023/01/09 05:46:29;;;;;;;18.90;5.73;;;;;;;0.20;nan;-23820.84;5011663;28;20172;-73
2023/01/09 05:48:54;;;;;;;8.67;6.53;;;;;;;-0.10;nan;-23812.25;5010730;28;20499;-73
2023/01/09 05:51:20;;;;;;;9.33;5.50;;;;;;;0.01;nan;-23815.41;5015371;28;20184;-73
2023/01/09 05:53:45;;;;;;;12.37;6.20;;;;;;;0.39;nan;-23826.28;5011010;28;20242;-74
2023/01/09 05:56:11;;;;;;;10.70;5.77;;;;;;;0.25;nan;-23822.25;5010768;28;20176;-72
2023/01/09 05:58:36;;;;;;;15.43;7.23;;;;;;;-0.08;nan;-23812.81;5010938;28;20183;-73
2023/01/09 06:01:01;;;;;;;9.97;6.13;;;;;;;0.48;nan;-23828.72;5011189;28;20212;-73
2023/01/09 06:03:27;;;;;;;13.90;6.93;;;;;;;0.46;nan;-23828.13;5011095;28;20295;-72
2023/01/09 06:05:52;;;;;;;12.87;6.27;;;;;;;-0.02;nan;-23814.53;5010857;28;20308;-73
2023/01/09 06:08:18;;;;;;;12.47;5.83;;;;;;;0.48;nan;-23828.56;5011102;28;20271;-73
2023/01/09 06:10:45;;;;;;;15.07;6.00;;;;;;;0.50;nan;-23829.28;5009817;28;20375;-72
2023/01/09 06:13:10;;;;;;;9.97;5.23;;;;;;;0.65;nan;-23833.44;5010499;28;20186;-73
2023/01/09 06:15:35;;;;;;;16.23;6.00;;;;;;;0.32;nan;-23824.28;5010955;28;20617;-73
2023/01/09 06:18:01;;;;;;;10.57;5.27;;;;;;;0.77;nan;-23837.00;5011002;28;20251;-73
2023/01/09 06:20:26;;;;;;;5.10;4.57;;;;;;;0.73;nan;-23835.88;5010384;28;20274;-73
2023/01/09 06:22:52;;;;;;;13.00;6.70;;;;;;;0.73;nan;-23835.88;5012448;28;20202;-73
2023/01/09 06:25:18;;;;;;;17.03;6.93;;;;;;;1.01;nan;-23843.72;5014799;28;20294;-73
2023/01/09 06:27:43;;;;;;;18.53;6.93;;;;;;;0.59;nan;-23831.84;5015098;28;20186;-72
2023/01/09 06:30:09;;;;;;;10.90;6.63;;;;;;;1.06;nan;-23845.16;5015027;28;20183;-73
2023/01/09 06:32:35;;;;;;;12.23;6.83;;;;;;;0.72;nan;-23835.44;5018022;28;20191;-72
2023/01/09 06:35:00;;;;;;;12.33;5.97;;;;;;;1.19;nan;-23848.75;5014944;28;20186;-72
2023/01/09 06:37:25;;;;;;;15.53;7.03;;;;;;;0.58;nan;-23831.44;5014128;28;20191;-73
2023/01/09 06:39:52;;;;;;;15.43;6.87;;;;;;;1.15;nan;-23847.59;5014191;28;20195;-72
2023/01/09 06:42:18;;;;;;;10.97;7.00;;;;;;;0.98;nan;-23842.72;5014665;28;20207;-72
2023/01/09 06:44:43;;;;;;;16.50;5.90;;;;;;;1.28;nan;-23851.31;5014317;28;20252;-72
2023/01/09 06:47:09;;;;;;;8.83;4.93;;;;;;;1.08;nan;-23845.72;5012517;28;20269;-71
2023/01/09 06:49:34;;;;;;;9.20;5.40;;;;;;;1.55;nan;-23859.03;5013326;28;20183;-72
2023/01/09 06:52:04;;;;;;;12.47;5.70;;;;;;;1.35;nan;-23853.31;5012976;28;20176;-71
2023/01/09 06:54:29;;;;;;;13.13;5.43;;;;;;;1.34;nan;-23853.16;4993964;28;20183;-71
2023/01/09 06:56:55;;;;;;;7.83;5.03;;;;;;;1.35;nan;-23853.31;4993938;28;20182;-71
2023/01/09 06:59:20;;;;;;;14.10;6.10;;;;;;;1.71;nan;-23863.59;4994243;28;20342;-72
2023/01/09 07:01:46;;;;;;;12.20;5.63;;;;;;;1.64;nan;-23861.47;4993891;28;20212;-72
2023/01/09 07:04:11;;;;;;;16.10;6.60;;;;;;;1.31;nan;-23852.16;4991892;28;20217;-72
2023/01/09 07:06:37;;;;;;;10.03;4.57;;;;;;;1.49;nan;-23857.31;4994339;28;20242;-72
2023/01/09 07:09:04;;;;;;;14.07;5.50;;;;;;;1.69;nan;-23863.03;4994331;28;20563;-72
2023/01/09 07:11:30;;;;;;;13.03;6.97;;;;;;;1.77;nan;-23865.31;4994034;28;20255;-72
2023/01/09 07:13:55;;;;;;;8.40;5.50;;;;;;;1.81;nan;-23866.16;5017557;28;20302;-73
2023/01/09 07:16:21;;;;;;;11.30;5.47;;;;;;;1.82;nan;-23866.47;5013458;28;20179;-73
2023/01/09 07:18:46;;;;;;;17.10;5.87;;;;;;;1.24;nan;-23850.31;5013724;28;20745;-73
2023/01/09 07:21:12;;;;;;;15.17;6.90;;;;;;;1.45;nan;-23856.16;5013118;28;20745;-71
2023/01/09 07:23:37;;;;;;;12.23;6.60;;;;;;;1.37;nan;-23853.88;5013716;28;20624;-72
2023/01/09 07:26:03;;;;;;;16.40;7.67;;;;;;;2.01;nan;-23871.88;5013545;28;20644;-73
2023/01/09 07:28:28;;;;;;;18.87;5.27;;;;;;;1.99;nan;-23871.47;5013814;28;20172;-74
2023/01/09 07:30:53;;;;;;;38.07;8.00;;;;;;;1.59;nan;-23860.16;5013467;28;20238;-74
2023/01/09 07:33:19;;;;;;;13.93;7.17;;;;;;;2.02;nan;-23872.16;5011552;28;20176;-72
2023/01/09 07:35:44;;;;;;;16.93;7.17;;;;;;;2.12;nan;-23875.03;5012885;28;20183;-72
2023/01/09 07:38:10;;;;;;;18.77;7.27;;;;;;;1.67;nan;-23862.47;5012923;28;20646;-73
2023/01/09 07:40:35;;;;;;;24.27;6.77;;;;;;;1.64;nan;-23861.47;5013125;28;20192;-71
2023/01/09 07:43:00;;;;;;;11.43;6.07;;;;;;;1.95;nan;-23870.16;5012879;28;20176;-72
2023/01/09 07:45:26;;;;;;;26.00;7.17;;;;;;;2.08;nan;-23873.88;5012714;28;20484;-73
2023/01/09 07:47:51;;;;;;;21.30;7.90;;;;;;;2.27;nan;-23879.16;5012676;28;20186;-72
2023/01/09 07:50:18;;;;;;;28.57;8.40;;;;;;;2.16;nan;-23876.16;5012876;28;20176;-72
2023/01/09 07:52:44;;;;;;;32.83;6.50;;;;;;;2.40;nan;-23883.03;5012988;28;20627;-71
2023/01/09 07:55:10;;;;;;;16.30;6.77;;;;;;;2.31;nan;-23880.47;5012817;28;20282;-72
2023/01/09 07:57:35;;;;;;;13.23;6.27;;;;;;;1.75;nan;-23864.75;5011405;28;20730;-72
2023/01/09 08:00:02;;;;;;;21.33;7.87;;;;;;;2.56;nan;-23887.59;5012950;28;20188;-72
2023/01/09 08:02:28;;;;;;;25.63;7.83;;;;;;;2.70;nan;-23891.44;5012285;28;20266;-74
2023/01/09 08:04:53;;;;;;;13.93;7.37;;;;;;;2.59;nan;-23888.44;5012396;28;20212;-71
2023/01/09 08:07:19;;;;;;;13.70;7.00;;;;;;;2.46;nan;-23884.59;5011723;28;20238;-72
2023/01/09 08:09:44;;;;;;;26.60;8.13;;;;;;;2.61;nan;-23889.03;5012343;28;20184;-72
2023/01/09 08:12:10;;;;;;;15.73;6.67;;;;;;;2.51;nan;-23886.03;5012757;28;20184;-73
2023/01/09 08:14:35;;;;;;;31.07;7.63;;;;;;;2.28;nan;-23879.59;5012897;28;20176;-72
2023/01/09 08:17:01;;;;;;;44.63;7.33;;;;;;;1.98;nan;-23871.03;5012664;28;20207;-72
2023/01/09 08:19:27;;;;;;;16.50;7.87;;;;;;;2.75;nan;-23892.72;5012484;28;20263;-70
2023/01/09 08:21:52;;;;;;;24.17;7.87;;;;;;;2.64;nan;-23889.88;5012545;28;20211;-72
2023/01/09 08:24:18;;;;;;;20.83;9.17;;;;;;;2.39;nan;-23882.59;5012450;28;20198;-71
2023/01/09 08:26:43;;;;;;;37.13;9.00;;;;;;;2.36;nan;-23881.88;5011052;28;20234;-71
2023/01/09 08:29:10;;;;;;;24.87;9.03;;;;;;;2.89;nan;-23896.88;5012053;28;20231;-73
2023/01/09 08:31:35;;;;;;;44.23;9.50;;;;;;;3.01;nan;-23900.28;5012595;28;20172;-71
2023/01/09 08:34:01;;;;;;;16.03;9.43;;;;;;;3.06;nan;-23901.56;5012425;28;20639;-73
2023/01/09 08:36:26;;;;;;;44.50;10.53;;;;;;;2.80;nan;-23894.31;5012243;28;20187;-71
2023/01/09 08:38:52;;;;;;;30.53;11.70;;;;;;;2.57;nan;-23887.88;5011752;28;20179;-72
2023/01/09 08:49:29;;;;;;;21.30;10.93;;;;;;;3.93;nan;-23926.09;5011798;28;20168;-71
2023/01/09 08:51:54;;;;;;;40.50;11.30;;;;;;;4.02;nan;-23928.50;5011286;28;20176;-71
2023/01/09 08:54:20;;;;;;;38.67;9.70;;;;;;;4.19;nan;-23933.50;5016552;28;20264;-73
2023/01/09 08:56:45;;;;;;;23.23;11.23;;;;;;;3.91;nan;-23925.53;5011327;28;20176;-74
2023/01/09 08:59:11;;;;;;;33.67;12.00;;;;;;;4.24;nan;-23934.78;5011452;28;20192;-72
2023/01/09 09:01:36;;;;;;;23.03;11.20;;;;;;;4.06;nan;-23929.66;5011376;28;20203;-73
2023/01/09 09:04:04;;;;;;;31.60;12.93;;;;;;;4.09;nan;-23930.66;5011970;28;20227;-73
2023/01/09 09:06:30;;;;;;;23.47;10.93;;;;;;;3.92;nan;-23925.81;5011715;28;20179;-72
2023/01/09 09:08:55;;;;;;;35.40;11.27;;;;;;;3.96;nan;-23926.94;5012096;28;20175;-71
2023/01/09 09:11:20;;;;;;;23.90;11.30;;;;;;;3.61;nan;-23916.97;5016140;28;20191;-73
2023/01/09 09:13:46;;;;;;;17.37;9.80;;;;;;;3.32;nan;-23909.00;5012372;28;20171;-72
2023/01/09 09:16:11;;;;;;;35.57;9.77;;;;;;;3.89;nan;-23925.09;5012620;28;20176;-72
2023/01/09 09:18:37;;;;;;;28.97;10.23;;;;;;;3.63;nan;-23917.53;5011971;28;20179;-74
2023/01/09 09:21:02;;;;;;;22.90;10.00;;;;;;;3.99;nan;-23927.94;5011572;28;20219;-74
2023/01/09 09:23:27;;;;;;;37.40;9.50;;;;;;;4.12;nan;-23931.50;5011422;28;20654;-72
2023/01/09 09:25:53;;;;;;;27.87;10.07;;;;;;;3.76;nan;-23921.25;5012071;28;20182;-72
2023/01/09 09:28:18;;;;;;;18.50;8.40;;;;;;;4.33;nan;-23937.34;5012130;28;20168;-73
2023/01/09 09:30:44;;;;;;;20.30;9.93;;;;;;;4.30;nan;-23936.63;5012497;28;20191;-73
2023/01/09 09:33:09;;;;;;;24.47;11.30;;;;;;;4.74;nan;-23948.88;5012138;28;20230;-73
2023/01/09 09:35:35;;;;;;;40.50;11.43;;;;;;;4.24;nan;-23934.78;5012118;28;20187;-73
2023/01/09 09:38:03;;;;;;;37.00;11.00;;;;;;;4.67;nan;-23946.88;5012181;28;20175;-74
2023/01/09 09:40:47;;;;;;;49.27;12.67;;;;;;;4.59;nan;-23944.59;5011160;28;20195;-74
2023/01/09 09:46:15;;;;;;;42.50;15.53;;;;;;;4.54;nan;-23943.31;5012407;28;20230;-77
2023/01/09 09:48:56;;;;;;;26.37;13.10;;;;;;;4.34;nan;-23937.63;5010240;28;20230;-72
2023/01/09 09:51:39;;;;;;;41.70;12.87;;;;;;;4.24;nan;-23934.91;5011129;28;20161;-72
2023/01/09 09:54:11;;;;;;;32.43;11.87;;;;;;;4.27;nan;-23935.78;5010896;28;20187;-72
2023/01/09 09:56:46;;;;;;;21.67;9.60;;;;;;;3.90;nan;-23925.38;5012490;28;20186;-74
2023/01/09 09:59:19;;;;;;;41.20;11.93;;;;;;;4.21;nan;-23933.94;5015419;28;20222;-72
2023/01/09 10:01:56;;;;;;;39.40;11.83;;;;;;;4.14;nan;-23932.06;5015123;28;20200;-73
2023/01/09 10:04:24;;;;;;;27.43;9.77;;;;;;;4.13;nan;-23931.66;5014404;28;20219;-73
2023/01/09 10:06:55;;;;;;;25.87;9.03;;;;;;;4.09;nan;-23930.50;5013296;28;20723;-73
2023/01/09 10:09:40;;;;;;;28.47;10.03;;;;;;;3.94;nan;-23926.38;5014776;28;20207;-72
2023/01/09 10:12:24;;;;;;;38.80;10.77;;;;;;;4.16;nan;-23932.63;5014512;28;20577;-72
2023/01/09 10:14:50;;;;;;;19.47;8.27;;;;;;;3.93;nan;-23926.22;5014240;28;20168;-72
2023/01/09 10:17:18;;;;;;;34.90;7.10;;;;;;;4.24;nan;-23934.91;5014200;28;20177;-71
2023/01/09 10:19:49;;;;;;;20.37;9.43;;;;;;;3.81;nan;-23922.81;5013040;28;20172;-74
2023/01/09 10:22:30;;;;;;;27.87;9.17;;;;;;;4.34;nan;-23937.63;5014582;28;20291;-71
2023/01/09 10:25:15;;;;;;;26.07;10.10;;;;;;;3.84;nan;-23923.53;5014534;28;20191;-72
2023/01/09 10:28:16;;;;;;;27.63;9.40;;;;;;;4.40;nan;-23939.47;5014214;28;20168;-73
2023/01/09 10:30:48;;;;;;;23.07;9.17;;;;;;;4.31;nan;-23936.91;5014444;28;20172;-75
2023/01/09 10:33:29;;;;;;;21.60;9.50;;;;;;;3.85;nan;-23923.81;5013611;28;20168;-72
2023/01/09 10:36:12;;;;;;;28.57;9.00;;;;;;;4.23;nan;-23934.63;5013652;28;20187;-74
2023/01/09 10:38:42;;;;;;;19.57;7.93;;;;;;;3.80;nan;-23922.53;5014319;28;20188;-74
2023/01/09 10:41:38;;;;;;;26.00;7.93;;;;;;;4.38;nan;-23938.91;5013974;28;20204;-74
2023/01/09 10:44:16;;;;;;;23.13;8.07;;;;;;;4.22;nan;-23934.22;5014149;28;20196;-72
2023/01/09 10:46:50;;;;;;;22.57;7.37;;;;;;;4.00;nan;-23928.22;5013984;28;20675;-72
2023/01/09 10:49:16;;;;;;;34.37;9.13;;;;;;;4.07;nan;-23929.94;5013871;28;20203;-73
2023/01/09 10:51:55;;;;;;;20.10;8.23;;;;;;;4.31;nan;-23936.91;5013563;28;20234;-73
2023/01/09 10:54:22;;;;;;;21.97;8.70;;;;;;;4.29;nan;-23936.19;5013857;28;20275;-72
2023/01/09 10:57:05;;;;;;;29.00;8.30;;;;;;;4.34;nan;-23937.78;5012755;28;20609;-72
2023/01/09 10:59:31;;;;;;;18.37;7.90;;;;;;;4.23;nan;-23934.63;5013599;28;20186;-74
2023/01/09 11:01:57;;;;;;;38.83;8.90;;;;;;;4.50;nan;-23942.19;5013709;28;20207;-73
2023/01/09 11:04:27;;;;;;;38.57;8.93;;;;;;;4.60;nan;-23944.88;5013411;28;20211;-73
2023/01/09 11:07:01;;;;;;;26.37;7.07;;;;;;;4.23;nan;-23934.50;5013670;28;20171;-73
2023/01/09 11:09:26;;;;;;;27.57;8.87;;;;;;;4.18;nan;-23933.22;5013408;28;20255;-74
2023/01/09 11:11:51;;;;;;;24.77;9.20;;;;;;;4.37;nan;-23938.63;5013843;28;20302;-72
2023/01/09 11:14:26;;;;;;;33.03;9.07;;;;;;;3.96;nan;-23927.09;5013622;28;20172;-72
2023/01/09 11:16:53;;;;;;;19.40;9.57;;;;;;;4.43;nan;-23940.34;5013680;28;20206;-74
2023/01/09 11:19:19;;;;;;;40.60;10.37;;;;;;;4.47;nan;-23941.31;5013603;28;20194;-72
2023/01/09 11:21:45;;;;;;;33.33;9.00;;;;;;;4.04;nan;-23929.22;5013119;28;20722;-74
2023/01/09 11:24:20;;;;;;;41.93;11.60;;;;;;;4.47;nan;-23941.31;5013190;28;20187;-72
2023/01/09 11:26:50;;;;;;;42.63;10.97;;;;;;;4.07;nan;-23930.06;5013253;28;20178;-73
2023/01/09 11:29:18;;;;;;;35.87;9.73;;;;;;;4.16;nan;-23932.63;5013205;28;20305;-73
2023/01/09 11:31:53;;;;;;;43.40;10.90;;;;;;;4.24;nan;-23934.91;5013085;28;20247;-73
2023/01/09 11:34:22;;;;;;;29.63;10.83;;;;;;;4.27;nan;-23935.78;5013461;28;20246;-73
2023/01/09 11:36:49;;;;;;;29.37;10.60;;;;;;;4.33;nan;-23937.47;5015552;28;20180;-73
2023/01/09 11:39:27;;;;;;;18.60;8.87;;;;;;;4.62;nan;-23945.47;5013590;28;20186;-72
2023/01/09 11:42:02;;;;;;;42.73;10.83;;;;;;;4.83;nan;-23951.44;5020069;28;20278;-71
2023/01/09 11:44:30;;;;;;;34.83;10.87;;;;;;;4.67;nan;-23946.88;5012481;28;20178;-75
2023/01/09 11:46:56;;;;;;;29.67;9.33;;;;;;;4.99;nan;-23956.00;5012268;28;20245;-73
2023/01/09 11:49:21;;;;;;;33.10;10.97;;;;;;;5.33;nan;-23965.50;5012178;28;20168;-73
2023/01/09 11:52:18;;;;;;;34.53;8.97;;;;;;;5.03;nan;-23956.97;5012868;28;20172;-74
2023/01/09 11:54:46;;;;;;;29.23;9.37;;;;;;;5.31;nan;-23965.09;5012522;28;20516;-72
2023/01/09 11:57:12;;;;;;;28.77;10.07;;;;;;;5.04;nan;-23957.41;5012787;28;20180;-74
2023/01/09 11:59:37;;;;;;;39.50;10.87;;;;;;;5.16;nan;-23960.81;5013010;28;20591;-74